sensor_id;sensor_type;location;lat;lon;timestamp;temperature;humidity
4739;DHT22;2383;48.632;10.156;2023-06-26T00:02:45;17.50;86.40
4739;DHT22;2383;48.632;10.156;2023-06-26T00:06:47;17.50;86.60
4739;DHT22;2383;48.632;10.156;2023-06-26T00:10:49;17.40;86.70
4739;DHT22;2383;48.632;10.156;2023-06-26T00:14:53;17.30;87.10
4739;DHT22;2383;48.632;10.156;2023-06-26T00:18:54;16.80;87.90
4739;DHT22;2383;48.632;10.156;2023-06-26T00:22:56;16.90;87.40
4739;DHT22;2383;48.632;10.156;2023-06-26T00:27:00;17.00;87.20
4739;DHT22;2383;48.632;10.156;2023-06-26T00:31:02;17.00;87.30
4739;DHT22;2383;48.632;10.156;2023-06-26T00:35:05;17.10;87.20
4739;DHT22;2383;48.632;10.156;2023-06-26T00:39:07;17.20;87.10
4739;DHT22;2383;48.632;10.156;2023-06-26T00:43:10;17.30;87.40
4739;DHT22;2383;48.632;10.156;2023-06-26T00:47:15;17.20;87.50
4739;DHT22;2383;48.632;10.156;2023-06-26T00:51:18;17.10;86.70
4739;DHT22;2383;48.632;10.156;2023-06-26T00:55:20;17.00;86.80
4739;DHT22;2383;48.632;10.156;2023-06-26T00:59:22;16.90;87.60
4739;DHT22;2383;48.632;10.156;2023-06-26T01:03:25;16.50;88.50
4739;DHT22;2383;48.632;10.156;2023-06-26T01:07:30;16.30;88.60
4739;DHT22;2383;48.632;10.156;2023-06-26T01:11:34;16.60;87.80
4739;DHT22;2383;48.632;10.156;2023-06-26T01:15:36;16.40;88.50
4739;DHT22;2383;48.632;10.156;2023-06-26T01:19:38;16.60;88.00
4739;DHT22;2383;48.632;10.156;2023-06-26T01:23:58;16.70;88.10
4739;DHT22;2383;48.632;10.156;2023-06-26T01:28:08;16.60;88.10
4739;DHT22;2383;48.632;10.156;2023-06-26T01:32:10;16.50;88.20
4739;DHT22;2383;48.632;10.156;2023-06-26T01:36:13;16.20;88.50
4739;DHT22;2383;48.632;10.156;2023-06-26T01:40:15;16.00;88.60
4739;DHT22;2383;48.632;10.156;2023-06-26T01:44:28;16.20;88.40
4739;DHT22;2383;48.632;10.156;2023-06-26T01:48:34;16.20;88.80
4739;DHT22;2383;48.632;10.156;2023-06-26T01:52:49;16.20;88.70
4739;DHT22;2383;48.632;10.156;2023-06-26T01:56:55;16.40;89.10
4739;DHT22;2383;48.632;10.156;2023-06-26T02:00:59;16.00;89.40
4739;DHT22;2383;48.632;10.156;2023-06-26T02:05:02;15.70;90.00
4739;DHT22;2383;48.632;10.156;2023-06-26T02:09:04;15.80;89.60
4739;DHT22;2383;48.632;10.156;2023-06-26T02:13:06;15.90;89.70
4739;DHT22;2383;48.632;10.156;2023-06-26T02:17:08;15.70;90.10
4739;DHT22;2383;48.632;10.156;2023-06-26T02:21:10;15.90;90.20
4739;DHT22;2383;48.632;10.156;2023-06-26T02:25:13;15.70;90.30
4739;DHT22;2383;48.632;10.156;2023-06-26T02:29:16;15.60;90.40
4739;DHT22;2383;48.632;10.156;2023-06-26T02:33:18;15.70;90.50
4739;DHT22;2383;48.632;10.156;2023-06-26T02:37:23;15.50;90.60
4739;DHT22;2383;48.632;10.156;2023-06-26T02:41:25;15.40;90.70
4739;DHT22;2383;48.632;10.156;2023-06-26T02:45:27;15.50;90.50
4739;DHT22;2383;48.632;10.156;2023-06-26T02:49:29;15.00;91.00
4739;DHT22;2383;48.632;10.156;2023-06-26T02:53:31;14.70;91.40
4739;DHT22;2383;48.632;10.156;2023-06-26T02:57:34;15.20;90.90
4739;DHT22;2383;48.632;10.156;2023-06-26T03:01:36;15.50;90.40
4739;DHT22;2383;48.632;10.156;2023-06-26T03:05:38;15.70;90.30
4739;DHT22;2383;48.632;10.156;2023-06-26T03:09:40;15.80;90.40
4739;DHT22;2383;48.632;10.156;2023-06-26T03:13:43;15.80;90.40
4739;DHT22;2383;48.632;10.156;2023-06-26T03:17:45;15.40;90.60
4739;DHT22;2383;48.632;10.156;2023-06-26T03:21:53;15.10;90.90
4739;DHT22;2383;48.632;10.156;2023-06-26T03:25:55;15.00;91.10
4739;DHT22;2383;48.632;10.156;2023-06-26T03:30:03;15.00;91.20
4739;DHT22;2383;48.632;10.156;2023-06-26T03:34:05;15.00;91.30
4739;DHT22;2383;48.632;10.156;2023-06-26T03:38:08;14.90;91.20
4739;DHT22;2383;48.632;10.156;2023-06-26T03:42:10;14.70;91.30
4739;DHT22;2383;48.632;10.156;2023-06-26T03:46:12;14.60;91.50
4739;DHT22;2383;48.632;10.156;2023-06-26T03:50:15;14.70;91.60
4739;DHT22;2383;48.632;10.156;2023-06-26T03:54:18;14.80;91.50
4739;DHT22;2383;48.632;10.156;2023-06-26T03:58:19;14.90;91.50
4739;DHT22;2383;48.632;10.156;2023-06-26T04:02:22;15.10;91.50
4739;DHT22;2383;48.632;10.156;2023-06-26T04:06:24;15.20;91.50
4739;DHT22;2383;48.632;10.156;2023-06-26T04:10:28;15.30;91.10
4739;DHT22;2383;48.632;10.156;2023-06-26T04:14:30;15.20;91.00
4739;DHT22;2383;48.632;10.156;2023-06-26T04:18:32;15.10;91.50
4739;DHT22;2383;48.632;10.156;2023-06-26T04:22:34;15.00;91.50
4739;DHT22;2383;48.632;10.156;2023-06-26T04:26:36;15.00;91.80
4739;DHT22;2383;48.632;10.156;2023-06-26T04:30:38;15.20;91.80
4739;DHT22;2383;48.632;10.156;2023-06-26T04:34:41;15.20;91.80
4739;DHT22;2383;48.632;10.156;2023-06-26T04:38:46;15.30;91.80
4739;DHT22;2383;48.632;10.156;2023-06-26T04:42:49;15.20;91.90
4739;DHT22;2383;48.632;10.156;2023-06-26T04:46:51;15.20;92.10
4739;DHT22;2383;48.632;10.156;2023-06-26T04:50:54;15.20;92.20
4739;DHT22;2383;48.632;10.156;2023-06-26T04:54:57;15.10;92.50
4739;DHT22;2383;48.632;10.156;2023-06-26T04:58:59;15.10;92.70
4739;DHT22;2383;48.632;10.156;2023-06-26T05:03:01;15.00;93.30
4739;DHT22;2383;48.632;10.156;2023-06-26T05:07:04;15.20;93.00
4739;DHT22;2383;48.632;10.156;2023-06-26T05:11:06;15.20;93.00
4739;DHT22;2383;48.632;10.156;2023-06-26T05:15:09;15.40;93.10
4739;DHT22;2383;48.632;10.156;2023-06-26T05:19:10;15.50;93.00
4739;DHT22;2383;48.632;10.156;2023-06-26T05:23:13;15.60;92.80
4739;DHT22;2383;48.632;10.156;2023-06-26T05:27:15;15.80;92.80
4739;DHT22;2383;48.632;10.156;2023-06-26T05:31:23;16.00;93.00
4739;DHT22;2383;48.632;10.156;2023-06-26T05:35:28;16.10;93.00
4739;DHT22;2383;48.632;10.156;2023-06-26T05:39:32;16.20;92.80
4739;DHT22;2383;48.632;10.156;2023-06-26T05:43:34;16.30;92.70
4739;DHT22;2383;48.632;10.156;2023-06-26T05:47:36;16.50;92.50
4739;DHT22;2383;48.632;10.156;2023-06-26T05:51:39;16.90;92.50
4739;DHT22;2383;48.632;10.156;2023-06-26T05:55:41;16.80;92.70
4739;DHT22;2383;48.632;10.156;2023-06-26T05:59:45;16.80;92.20
4739;DHT22;2383;48.632;10.156;2023-06-26T06:03:48;17.20;91.90
4739;DHT22;2383;48.632;10.156;2023-06-26T06:07:50;17.50;92.00
4739;DHT22;2383;48.632;10.156;2023-06-26T06:11:52;17.70;91.60
4739;DHT22;2383;48.632;10.156;2023-06-26T06:15:54;17.50;91.90
4739;DHT22;2383;48.632;10.156;2023-06-26T06:19:57;18.00;91.10
4739;DHT22;2383;48.632;10.156;2023-06-26T06:23:59;18.10;91.10
4739;DHT22;2383;48.632;10.156;2023-06-26T06:28:04;18.30;91.50
4739;DHT22;2383;48.632;10.156;2023-06-26T06:32:06;18.50;91.40
4739;DHT22;2383;48.632;10.156;2023-06-26T06:36:09;18.80;91.10
4739;DHT22;2383;48.632;10.156;2023-06-26T06:40:11;19.00;90.80
4739;DHT22;2383;48.632;10.156;2023-06-26T06:44:13;19.20;91.10
4739;DHT22;2383;48.632;10.156;2023-06-26T06:48:15;19.30;90.90
4739;DHT22;2383;48.632;10.156;2023-06-26T06:52:18;19.40;90.70
4739;DHT22;2383;48.632;10.156;2023-06-26T06:56:20;19.50;91.00
4739;DHT22;2383;48.632;10.156;2023-06-26T07:00:22;19.60;91.00
4739;DHT22;2383;48.632;10.156;2023-06-26T07:04:24;19.60;90.90
4739;DHT22;2383;48.632;10.156;2023-06-26T07:08:26;19.80;91.20
4739;DHT22;2383;48.632;10.156;2023-06-26T07:12:28;20.10;90.80
4739;DHT22;2383;48.632;10.156;2023-06-26T07:16:30;20.10;90.90
4739;DHT22;2383;48.632;10.156;2023-06-26T07:20:32;20.20;91.10
4739;DHT22;2383;48.632;10.156;2023-06-26T07:24:34;20.20;91.10
4739;DHT22;2383;48.632;10.156;2023-06-26T07:28:36;20.30;91.80
4739;DHT22;2383;48.632;10.156;2023-06-26T07:32:38;20.60;91.60
4739;DHT22;2383;48.632;10.156;2023-06-26T07:36:42;20.70;91.90
4739;DHT22;2383;48.632;10.156;2023-06-26T07:40:44;20.80;91.90
4739;DHT22;2383;48.632;10.156;2023-06-26T07:44:46;21.20;91.50
4739;DHT22;2383;48.632;10.156;2023-06-26T07:48:48;21.30;91.90
4739;DHT22;2383;48.632;10.156;2023-06-26T07:52:50;21.50;91.50
4739;DHT22;2383;48.632;10.156;2023-06-26T07:57:00;21.60;91.10
4739;DHT22;2383;48.632;10.156;2023-06-26T08:01:04;21.70;91.10
4739;DHT22;2383;48.632;10.156;2023-06-26T08:05:07;21.80;92.10
4739;DHT22;2383;48.632;10.156;2023-06-26T08:09:10;22.10;91.30
4739;DHT22;2383;48.632;10.156;2023-06-26T08:13:14;22.10;91.90
4739;DHT22;2383;48.632;10.156;2023-06-26T08:17:16;22.20;91.20
4739;DHT22;2383;48.632;10.156;2023-06-26T08:21:18;22.40;90.80
4739;DHT22;2383;48.632;10.156;2023-06-26T08:25:20;22.40;91.30
4739;DHT22;2383;48.632;10.156;2023-06-26T08:29:22;22.50;91.30
4739;DHT22;2383;48.632;10.156;2023-06-26T08:33:24;22.60;91.30
4739;DHT22;2383;48.632;10.156;2023-06-26T08:37:26;22.90;91.30
4739;DHT22;2383;48.632;10.156;2023-06-26T08:41:29;23.00;90.60
4739;DHT22;2383;48.632;10.156;2023-06-26T08:45:31;23.10;90.60
4739;DHT22;2383;48.632;10.156;2023-06-26T08:49:53;23.20;90.30
4739;DHT22;2383;48.632;10.156;2023-06-26T08:53:59;23.30;88.80
4739;DHT22;2383;48.632;10.156;2023-06-26T08:58:02;23.30;90.70
4739;DHT22;2383;48.632;10.156;2023-06-26T09:02:04;23.00;88.80
4739;DHT22;2383;48.632;10.156;2023-06-26T09:06:07;22.90;82.10
4739;DHT22;2383;48.632;10.156;2023-06-26T09:10:09;23.20;78.90
4739;DHT22;2383;48.632;10.156;2023-06-26T09:14:12;23.10;78.10
4739;DHT22;2383;48.632;10.156;2023-06-26T09:18:17;23.00;77.40
4739;DHT22;2383;48.632;10.156;2023-06-26T09:22:21;23.20;78.30
4739;DHT22;2383;48.632;10.156;2023-06-26T09:26:24;22.90;78.00
4739;DHT22;2383;48.632;10.156;2023-06-26T09:30:27;23.40;77.30
4739;DHT22;2383;48.632;10.156;2023-06-26T09:34:35;23.50;75.80
4739;DHT22;2383;48.632;10.156;2023-06-26T09:38:37;23.10;77.40
4739;DHT22;2383;48.632;10.156;2023-06-26T09:42:39;23.00;76.60
4739;DHT22;2383;48.632;10.156;2023-06-26T09:46:45;22.70;76.80
4739;DHT22;2383;48.632;10.156;2023-06-26T09:50:48;23.00;76.00
4739;DHT22;2383;48.632;10.156;2023-06-26T09:55:10;23.50;75.10
4739;DHT22;2383;48.632;10.156;2023-06-26T09:59:13;23.70;74.50
4739;DHT22;2383;48.632;10.156;2023-06-26T10:03:17;24.10;74.90
4739;DHT22;2383;48.632;10.156;2023-06-26T10:07:20;24.10;75.30
4739;DHT22;2383;48.632;10.156;2023-06-26T10:11:25;23.70;75.10
4739;DHT22;2383;48.632;10.156;2023-06-26T10:15:31;23.30;76.00
4739;DHT22;2383;48.632;10.156;2023-06-26T10:19:33;23.70;75.30
4739;DHT22;2383;48.632;10.156;2023-06-26T10:23:39;23.40;74.00
4739;DHT22;2383;48.632;10.156;2023-06-26T10:27:44;23.70;74.40
4739;DHT22;2383;48.632;10.156;2023-06-26T10:31:51;23.90;73.50
4739;DHT22;2383;48.632;10.156;2023-06-26T10:36:13;23.90;73.00
4739;DHT22;2383;48.632;10.156;2023-06-26T10:40:22;24.20;72.90
4739;DHT22;2383;48.632;10.156;2023-06-26T10:44:26;24.60;73.60
4739;DHT22;2383;48.632;10.156;2023-06-26T10:48:29;24.60;72.10
4739;DHT22;2383;48.632;10.156;2023-06-26T10:52:36;24.30;72.70
4739;DHT22;2383;48.632;10.156;2023-06-26T10:56:48;24.80;73.40
4739;DHT22;2383;48.632;10.156;2023-06-26T11:00:51;24.40;72.90
4739;DHT22;2383;48.632;10.156;2023-06-26T11:04:59;24.50;74.50
4739;DHT22;2383;48.632;10.156;2023-06-26T11:09:06;24.10;73.40
4739;DHT22;2383;48.632;10.156;2023-06-26T11:13:10;24.60;71.10
4739;DHT22;2383;48.632;10.156;2023-06-26T11:17:12;25.10;71.70
4739;DHT22;2383;48.632;10.156;2023-06-26T11:21:20;24.90;70.90
4739;DHT22;2383;48.632;10.156;2023-06-26T11:25:23;24.60;70.00
4739;DHT22;2383;48.632;10.156;2023-06-26T11:29:25;25.50;70.40
4739;DHT22;2383;48.632;10.156;2023-06-26T11:33:27;24.90;70.30
4739;DHT22;2383;48.632;10.156;2023-06-26T11:37:30;25.20;70.40
4739;DHT22;2383;48.632;10.156;2023-06-26T11:41:35;25.30;70.10
4739;DHT22;2383;48.632;10.156;2023-06-26T11:45:37;24.60;70.10
4739;DHT22;2383;48.632;10.156;2023-06-26T11:49:45;24.70;70.90
4739;DHT22;2383;48.632;10.156;2023-06-26T11:53:49;25.30;72.00
4739;DHT22;2383;48.632;10.156;2023-06-26T11:57:56;25.40;69.80
4739;DHT22;2383;48.632;10.156;2023-06-26T12:01:58;25.40;71.20
4739;DHT22;2383;48.632;10.156;2023-06-26T12:06:01;25.70;71.10
4739;DHT22;2383;48.632;10.156;2023-06-26T12:10:05;25.50;71.50
4739;DHT22;2383;48.632;10.156;2023-06-26T12:14:08;25.90;72.30
4739;DHT22;2383;48.632;10.156;2023-06-26T12:18:11;25.00;73.30
4739;DHT22;2383;48.632;10.156;2023-06-26T12:22:13;25.40;71.40
4739;DHT22;2383;48.632;10.156;2023-06-26T12:26:17;25.90;70.80
4739;DHT22;2383;48.632;10.156;2023-06-26T12:30:20;26.00;70.70
4739;DHT22;2383;48.632;10.156;2023-06-26T12:34:28;26.00;70.50
4739;DHT22;2383;48.632;10.156;2023-06-26T12:38:33;25.30;71.20
4739;DHT22;2383;48.632;10.156;2023-06-26T12:42:35;25.60;73.10
4739;DHT22;2383;48.632;10.156;2023-06-26T12:46:38;25.40;73.20
4739;DHT22;2383;48.632;10.156;2023-06-26T12:50:46;25.50;72.70
4739;DHT22;2383;48.632;10.156;2023-06-26T12:54:53;25.70;72.80
4739;DHT22;2383;48.632;10.156;2023-06-26T12:58:56;25.80;73.20
4739;DHT22;2383;48.632;10.156;2023-06-26T13:02:58;25.80;72.70
4739;DHT22;2383;48.632;10.156;2023-06-26T13:07:01;26.00;71.50
4739;DHT22;2383;48.632;10.156;2023-06-26T13:11:03;25.90;73.00
4739;DHT22;2383;48.632;10.156;2023-06-26T13:15:05;25.30;74.50
4739;DHT22;2383;48.632;10.156;2023-06-26T13:19:07;25.70;73.30
4739;DHT22;2383;48.632;10.156;2023-06-26T13:23:09;25.60;73.60
4739;DHT22;2383;48.632;10.156;2023-06-26T13:27:11;25.60;73.30
4739;DHT22;2383;48.632;10.156;2023-06-26T13:31:14;25.40;74.00
4739;DHT22;2383;48.632;10.156;2023-06-26T13:35:16;25.40;73.60
4739;DHT22;2383;48.632;10.156;2023-06-26T13:39:18;25.10;74.10
4739;DHT22;2383;48.632;10.156;2023-06-26T13:43:21;25.00;75.10
4739;DHT22;2383;48.632;10.156;2023-06-26T13:47:24;25.40;75.90
4739;DHT22;2383;48.632;10.156;2023-06-26T13:51:26;25.20;77.10
4739;DHT22;2383;48.632;10.156;2023-06-26T13:55:28;24.80;78.80
4739;DHT22;2383;48.632;10.156;2023-06-26T13:59:30;24.50;80.40
4739;DHT22;2383;48.632;10.156;2023-06-26T14:03:32;24.70;80.70
4739;DHT22;2383;48.632;10.156;2023-06-26T14:07:34;25.20;80.50
4739;DHT22;2383;48.632;10.156;2023-06-26T14:11:37;24.50;81.50
4739;DHT22;2383;48.632;10.156;2023-06-26T14:15:39;24.90;80.30
4739;DHT22;2383;48.632;10.156;2023-06-26T14:19:42;25.50;80.20
4739;DHT22;2383;48.632;10.156;2023-06-26T14:23:44;25.50;79.40
4739;DHT22;2383;48.632;10.156;2023-06-26T14:27:46;25.00;80.10
4739;DHT22;2383;48.632;10.156;2023-06-26T14:31:48;25.50;80.30
4739;DHT22;2383;48.632;10.156;2023-06-26T14:35:52;25.20;78.50
4739;DHT22;2383;48.632;10.156;2023-06-26T14:39:57;25.10;79.80
4739;DHT22;2383;48.632;10.156;2023-06-26T14:44:01;25.70;79.30
4739;DHT22;2383;48.632;10.156;2023-06-26T14:48:03;25.20;80.00
4739;DHT22;2383;48.632;10.156;2023-06-26T14:52:06;25.50;79.90
4739;DHT22;2383;48.632;10.156;2023-06-26T14:56:08;25.30;80.50
4739;DHT22;2383;48.632;10.156;2023-06-26T15:00:10;24.60;82.80
4739;DHT22;2383;48.632;10.156;2023-06-26T15:04:12;24.90;82.80
4739;DHT22;2383;48.632;10.156;2023-06-26T15:08:15;25.10;82.60
4739;DHT22;2383;48.632;10.156;2023-06-26T15:12:17;24.50;83.30
4739;DHT22;2383;48.632;10.156;2023-06-26T15:16:19;24.50;81.70
4739;DHT22;2383;48.632;10.156;2023-06-26T15:20:22;24.90;81.90
4739;DHT22;2383;48.632;10.156;2023-06-26T15:24:24;25.30;80.90
4739;DHT22;2383;48.632;10.156;2023-06-26T15:28:26;24.80;80.10
4739;DHT22;2383;48.632;10.156;2023-06-26T15:32:28;24.70;80.80
4739;DHT22;2383;48.632;10.156;2023-06-26T15:36:31;24.50;81.80
4739;DHT22;2383;48.632;10.156;2023-06-26T15:40:33;24.50;80.60
4739;DHT22;2383;48.632;10.156;2023-06-26T15:44:34;23.30;82.10
4739;DHT22;2383;48.632;10.156;2023-06-26T15:48:37;23.90;80.40
4739;DHT22;2383;48.632;10.156;2023-06-26T15:52:42;24.70;79.60
4739;DHT22;2383;48.632;10.156;2023-06-26T15:56:44;25.30;78.70
4739;DHT22;2383;48.632;10.156;2023-06-26T16:00:48;24.80;76.00
4739;DHT22;2383;48.632;10.156;2023-06-26T16:04:50;24.40;76.50
4739;DHT22;2383;48.632;10.156;2023-06-26T16:08:52;25.00;75.90
4739;DHT22;2383;48.632;10.156;2023-06-26T16:12:54;24.80;75.40
4739;DHT22;2383;48.632;10.156;2023-06-26T16:16:56;24.20;76.60
4739;DHT22;2383;48.632;10.156;2023-06-26T16:20:58;25.10;74.60
4739;DHT22;2383;48.632;10.156;2023-06-26T16:25:00;25.80;72.60
4739;DHT22;2383;48.632;10.156;2023-06-26T16:29:02;26.10;71.20
4739;DHT22;2383;48.632;10.156;2023-06-26T16:33:06;26.90;71.20
4739;DHT22;2383;48.632;10.156;2023-06-26T16:37:08;26.10;71.30
4739;DHT22;2383;48.632;10.156;2023-06-26T16:41:10;25.70;70.10
4739;DHT22;2383;48.632;10.156;2023-06-26T16:45:12;25.20;71.50
4739;DHT22;2383;48.632;10.156;2023-06-26T16:49:14;25.60;70.80
4739;DHT22;2383;48.632;10.156;2023-06-26T16:53:16;25.80;70.60
4739;DHT22;2383;48.632;10.156;2023-06-26T16:57:19;24.90;71.90
4739;DHT22;2383;48.632;10.156;2023-06-26T17:01:20;23.10;74.50
4739;DHT22;2383;48.632;10.156;2023-06-26T17:05:23;22.70;75.30
4739;DHT22;2383;48.632;10.156;2023-06-26T17:09:25;23.30;74.40
4739;DHT22;2383;48.632;10.156;2023-06-26T17:13:27;23.50;74.80
4739;DHT22;2383;48.632;10.156;2023-06-26T17:17:30;23.60;73.60
4739;DHT22;2383;48.632;10.156;2023-06-26T17:21:33;22.60;75.80
4739;DHT22;2383;48.632;10.156;2023-06-26T17:25:35;22.50;75.80
4739;DHT22;2383;48.632;10.156;2023-06-26T17:29:38;23.00;75.30
4739;DHT22;2383;48.632;10.156;2023-06-26T17:33:40;22.60;76.90
4739;DHT22;2383;48.632;10.156;2023-06-26T17:37:42;22.30;76.30
4739;DHT22;2383;48.632;10.156;2023-06-26T17:41:46;22.60;76.90
4739;DHT22;2383;48.632;10.156;2023-06-26T17:45:48;22.20;76.60
4739;DHT22;2383;48.632;10.156;2023-06-26T17:49:50;21.60;78.10
4739;DHT22;2383;48.632;10.156;2023-06-26T17:53:52;21.90;76.90
4739;DHT22;2383;48.632;10.156;2023-06-26T17:57:54;22.20;76.00
4739;DHT22;2383;48.632;10.156;2023-06-26T18:01:56;22.40;75.80
4739;DHT22;2383;48.632;10.156;2023-06-26T18:06:01;21.80;76.90
4739;DHT22;2383;48.632;10.156;2023-06-26T18:10:03;21.80;76.40
4739;DHT22;2383;48.632;10.156;2023-06-26T18:14:05;22.10;76.10
4739;DHT22;2383;48.632;10.156;2023-06-26T18:18:07;21.80;75.80
4739;DHT22;2383;48.632;10.156;2023-06-26T18:22:09;22.20;74.90
4739;DHT22;2383;48.632;10.156;2023-06-26T18:26:11;22.40;74.90
4739;DHT22;2383;48.632;10.156;2023-06-26T18:30:13;23.00;73.50
4739;DHT22;2383;48.632;10.156;2023-06-26T18:34:16;22.50;73.10
4739;DHT22;2383;48.632;10.156;2023-06-26T18:38:18;22.00;72.60
4739;DHT22;2383;48.632;10.156;2023-06-26T18:42:20;21.80;72.10
4739;DHT22;2383;48.632;10.156;2023-06-26T18:46:22;22.50;71.20
4739;DHT22;2383;48.632;10.156;2023-06-26T18:50:29;22.70;69.10
4739;DHT22;2383;48.632;10.156;2023-06-26T18:54:31;22.40;68.80
4739;DHT22;2383;48.632;10.156;2023-06-26T18:58:34;22.40;68.40
4739;DHT22;2383;48.632;10.156;2023-06-26T19:02:38;22.30;67.90
4739;DHT22;2383;48.632;10.156;2023-06-26T19:06:40;22.40;64.30
4739;DHT22;2383;48.632;10.156;2023-06-26T19:10:42;21.70;61.90
4739;DHT22;2383;48.632;10.156;2023-06-26T19:14:44;21.00;61.10
4739;DHT22;2383;48.632;10.156;2023-06-26T19:18:46;21.10;60.40
4739;DHT22;2383;48.632;10.156;2023-06-26T19:22:48;21.30;60.50
4739;DHT22;2383;48.632;10.156;2023-06-26T19:26:50;21.30;59.30
4739;DHT22;2383;48.632;10.156;2023-06-26T19:30:54;20.80;60.30
4739;DHT22;2383;48.632;10.156;2023-06-26T19:34:57;21.10;60.40
4739;DHT22;2383;48.632;10.156;2023-06-26T19:38:59;20.60;60.70
4739;DHT22;2383;48.632;10.156;2023-06-26T19:43:05;20.20;59.90
4739;DHT22;2383;48.632;10.156;2023-06-26T19:47:07;21.10;59.30
4739;DHT22;2383;48.632;10.156;2023-06-26T19:51:09;21.60;60.10
4739;DHT22;2383;48.632;10.156;2023-06-26T19:55:11;21.90;61.30
4739;DHT22;2383;48.632;10.156;2023-06-26T19:59:13;21.90;62.80
4739;DHT22;2383;48.632;10.156;2023-06-26T20:03:15;21.90;59.70
4739;DHT22;2383;48.632;10.156;2023-06-26T20:07:17;21.80;59.30
4739;DHT22;2383;48.632;10.156;2023-06-26T20:11:20;21.80;60.80
4739;DHT22;2383;48.632;10.156;2023-06-26T20:15:22;21.30;60.50
4739;DHT22;2383;48.632;10.156;2023-06-26T20:19:24;21.00;60.40
4739;DHT22;2383;48.632;10.156;2023-06-26T20:23:26;21.20;60.20
4739;DHT22;2383;48.632;10.156;2023-06-26T20:27:27;21.10;60.50
4739;DHT22;2383;48.632;10.156;2023-06-26T20:31:30;21.20;62.20
4739;DHT22;2383;48.632;10.156;2023-06-26T20:35:33;21.30;62.10
4739;DHT22;2383;48.632;10.156;2023-06-26T20:39:35;20.80;62.00
4739;DHT22;2383;48.632;10.156;2023-06-26T20:43:38;20.70;63.00
4739;DHT22;2383;48.632;10.156;2023-06-26T20:47:40;20.80;62.00
4739;DHT22;2383;48.632;10.156;2023-06-26T20:51:44;20.80;62.00
4739;DHT22;2383;48.632;10.156;2023-06-26T20:55:47;19.70;63.40
4739;DHT22;2383;48.632;10.156;2023-06-26T20:59:50;20.10;62.50
4739;DHT22;2383;48.632;10.156;2023-06-26T21:03:52;20.10;62.90
4739;DHT22;2383;48.632;10.156;2023-06-26T21:07:54;19.90;63.20
4739;DHT22;2383;48.632;10.156;2023-06-26T21:11:56;20.10;63.30
4739;DHT22;2383;48.632;10.156;2023-06-26T21:15:58;20.30;63.90
4739;DHT22;2383;48.632;10.156;2023-06-26T21:20:01;20.50;63.10
4739;DHT22;2383;48.632;10.156;2023-06-26T21:24:03;20.40;63.60
4739;DHT22;2383;48.632;10.156;2023-06-26T21:28:05;20.00;63.80
4739;DHT22;2383;48.632;10.156;2023-06-26T21:32:07;19.70;64.50
4739;DHT22;2383;48.632;10.156;2023-06-26T21:36:09;19.80;64.50
4739;DHT22;2383;48.632;10.156;2023-06-26T21:40:12;19.40;64.80
4739;DHT22;2383;48.632;10.156;2023-06-26T21:44:14;19.20;65.60
4739;DHT22;2383;48.632;10.156;2023-06-26T21:48:16;18.60;66.30
4739;DHT22;2383;48.632;10.156;2023-06-26T21:52:18;18.70;66.60
4739;DHT22;2383;48.632;10.156;2023-06-26T21:56:21;18.60;66.90
4739;DHT22;2383;48.632;10.156;2023-06-26T22:00:23;18.70;66.90
4739;DHT22;2383;48.632;10.156;2023-06-26T22:04:27;18.60;67.40
4739;DHT22;2383;48.632;10.156;2023-06-26T22:08:29;18.50;67.60
4739;DHT22;2383;48.632;10.156;2023-06-26T22:12:32;18.40;67.60
4739;DHT22;2383;48.632;10.156;2023-06-26T22:16:34;18.90;67.60
4739;DHT22;2383;48.632;10.156;2023-06-26T22:20:36;19.20;66.70
4739;DHT22;2383;48.632;10.156;2023-06-26T22:24:38;18.30;68.20
4739;DHT22;2383;48.632;10.156;2023-06-26T22:28:40;18.70;68.40
4739;DHT22;2383;48.632;10.156;2023-06-26T22:32:43;18.90;68.10
4739;DHT22;2383;48.632;10.156;2023-06-26T22:36:45;19.20;67.90
4739;DHT22;2383;48.632;10.156;2023-06-26T22:40:47;18.60;68.50
4739;DHT22;2383;48.632;10.156;2023-06-26T22:44:49;18.80;68.40
4739;DHT22;2383;48.632;10.156;2023-06-26T22:48:51;19.10;68.30
4739;DHT22;2383;48.632;10.156;2023-06-26T22:52:54;18.80;68.70
4739;DHT22;2383;48.632;10.156;2023-06-26T22:56:56;19.00;68.70
4739;DHT22;2383;48.632;10.156;2023-06-26T23:00:58;18.90;68.80
4739;DHT22;2383;48.632;10.156;2023-06-26T23:05:02;19.00;68.80
4739;DHT22;2383;48.632;10.156;2023-06-26T23:09:05;18.60;69.40
4739;DHT22;2383;48.632;10.156;2023-06-26T23:13:07;18.50;69.70
4739;DHT22;2383;48.632;10.156;2023-06-26T23:17:09;18.20;70.10
4739;DHT22;2383;48.632;10.156;2023-06-26T23:21:13;18.70;69.80
4739;DHT22;2383;48.632;10.156;2023-06-26T23:25:15;18.80;69.60
4739;DHT22;2383;48.632;10.156;2023-06-26T23:29:17;18.70;69.80
4739;DHT22;2383;48.632;10.156;2023-06-26T23:33:20;18.80;69.90
4739;DHT22;2383;48.632;10.156;2023-06-26T23:37:23;18.90;70.00
4739;DHT22;2383;48.632;10.156;2023-06-26T23:41:28;18.90;70.10
4739;DHT22;2383;48.632;10.156;2023-06-26T23:45:31;19.00;70.00
4739;DHT22;2383;48.632;10.156;2023-06-26T23:49:34;19.00;69.90
4739;DHT22;2383;48.632;10.156;2023-06-26T23:53:37;19.00;70.10
4739;DHT22;2383;48.632;10.156;2023-06-26T23:57:41;18.90;70.20
